createdAt,value
2018-08-17T00:00:38.700Z,3.80
2018-08-17T00:03:07.634Z,3.90
2018-08-17T00:05:36.633Z,4.10
2018-08-17T00:08:05.548Z,4.07
2018-08-17T00:10:34.397Z,4.27
2018-08-17T00:13:03.285Z,4.23
2018-08-17T00:15:32.128Z,3.80
2018-08-17T00:18:01.004Z,3.97
2018-08-17T00:20:29.948Z,4.10
2018-08-17T00:22:58.849Z,4.30
2018-08-17T00:25:27.787Z,4.23
2018-08-17T00:27:57.554Z,4.17
2018-08-17T00:30:27.134Z,4.43
2018-08-17T00:32:56.048Z,4.73
2018-08-17T00:35:24.980Z,5.40
2018-08-17T00:37:53.836Z,5.40
2018-08-17T00:40:22.694Z,5.20
2018-08-17T00:42:51.664Z,5.60
2018-08-17T00:45:20.587Z,6.03
2018-08-17T00:47:49.463Z,6.03
2018-08-17T00:50:18.319Z,6.50
2018-08-17T00:52:47.214Z,6.73
2018-08-17T00:55:16.096Z,6.90
2018-08-17T00:57:44.970Z,6.83
2018-08-17T01:00:13.902Z,6.97
2018-08-17T01:02:42.758Z,6.37
2018-08-17T01:05:11.655Z,6.20
2018-08-17T01:07:40.479Z,6.07
2018-08-17T01:10:09.412Z,5.83
2018-08-17T01:12:38.302Z,6.50
2018-08-17T01:15:07.380Z,6.77
2018-08-17T01:17:36.244Z,6.30
2018-08-17T01:20:06.587Z,5.83
2018-08-17T01:22:35.426Z,5.70
2018-08-17T01:25:04.531Z,5.67
2018-08-17T01:27:33.365Z,5.57
2018-08-17T01:30:02.176Z,5.73
2018-08-17T01:32:31.026Z,5.87
2018-08-17T01:34:59.882Z,5.57
2018-08-17T01:37:28.748Z,5.33
2018-08-17T01:39:57.616Z,5.60
2018-08-17T01:42:26.524Z,5.50
2018-08-17T01:44:55.344Z,5.60
2018-08-17T01:47:24.255Z,5.13
2018-08-17T01:49:53.134Z,5.70
2018-08-17T01:52:21.947Z,5.77
2018-08-17T01:54:50.805Z,5.40
2018-08-17T01:57:19.707Z,5.40
2018-08-17T01:59:48.560Z,5.07
2018-08-17T02:02:17.424Z,5.13
2018-08-17T02:04:46.321Z,5.30
2018-08-17T02:07:15.209Z,5.50
2018-08-17T02:09:44.056Z,5.27
2018-08-17T02:12:12.909Z,5.20
2018-08-17T02:14:41.840Z,5.20
2018-08-17T02:17:10.658Z,5.40
2018-08-17T02:19:39.514Z,4.80
2018-08-17T02:22:08.352Z,4.20
2018-08-17T02:24:37.223Z,4.67
2018-08-17T02:27:06.068Z,4.43
2018-08-17T02:29:34.970Z,4.90
2018-08-17T02:32:03.844Z,4.40
2018-08-17T02:34:32.791Z,4.43
2018-08-17T02:37:01.727Z,4.07
2018-08-17T02:39:30.589Z,4.50
2018-08-17T02:41:59.546Z,4.43
2018-08-17T02:44:28.681Z,4.13
2018-08-17T02:46:57.586Z,4.13
2018-08-17T02:49:26.506Z,4.30
2018-08-17T02:51:55.466Z,4.20
2018-08-17T02:54:24.331Z,3.90
2018-08-17T02:56:53.184Z,4.00
2018-08-17T02:59:22.091Z,3.90
2018-08-17T03:01:50.987Z,4.20
2018-08-17T03:04:20.051Z,4.33
2018-08-17T03:06:48.916Z,4.40
2018-08-17T03:09:17.791Z,4.10
2018-08-17T03:11:46.668Z,3.97
2018-08-17T03:14:15.631Z,3.97
2018-08-17T03:16:44.600Z,4.10
2018-08-17T03:19:13.655Z,4.50
2018-08-17T03:21:42.678Z,4.30
2018-08-17T03:24:11.709Z,4.40
2018-08-17T03:26:40.782Z,4.33
2018-08-17T03:29:09.888Z,4.43
2018-08-17T03:31:38.859Z,4.20
2018-08-17T03:34:07.983Z,4.23
2018-08-17T03:36:36.882Z,3.90
2018-08-17T03:39:08.712Z,4.50
2018-08-17T03:41:37.734Z,3.97
2018-08-17T03:44:06.659Z,4.37
2018-08-17T03:46:35.553Z,3.90
2018-08-17T03:51:47.789Z,4.10
2018-08-17T03:54:16.628Z,4.10
2018-08-17T03:56:45.552Z,4.20
2018-08-17T03:59:14.485Z,4.30
2018-08-17T04:01:43.350Z,3.70
2018-08-17T04:04:12.162Z,4.37
2018-08-17T04:06:41.001Z,4.23
2018-08-17T04:09:11.054Z,4.33
2018-08-17T04:11:40.196Z,4.37
2018-08-17T04:14:09.541Z,3.60
2018-08-17T04:16:38.388Z,3.83
2018-08-17T04:19:07.208Z,3.47
2018-08-17T04:21:36.066Z,3.77
2018-08-17T04:24:05.041Z,3.97
2018-08-17T04:26:33.886Z,4.10
2018-08-17T04:29:02.755Z,3.93
2018-08-17T04:31:31.605Z,4.33
2018-08-17T04:34:00.466Z,4.07
2018-08-17T04:36:29.509Z,4.17
2018-08-17T04:38:58.349Z,4.43
2018-08-17T04:41:27.150Z,4.40
2018-08-17T04:43:55.977Z,4.27
2018-08-17T04:46:24.797Z,4.60
2018-08-17T04:48:53.636Z,4.57
2018-08-17T04:51:22.503Z,4.43
2018-08-17T04:53:51.318Z,4.13
2018-08-17T04:56:20.171Z,3.90
2018-08-17T04:58:49.013Z,3.73
2018-08-17T05:01:17.885Z,4.10
2018-08-17T05:03:46.821Z,4.43
2018-08-17T05:06:15.703Z,4.30
2018-08-17T05:08:44.555Z,3.80
2018-08-17T05:11:13.361Z,4.37
2018-08-17T05:13:42.226Z,4.13
2018-08-17T05:16:11.174Z,3.80
2018-08-17T05:18:40.116Z,3.83
2018-08-17T05:21:08.991Z,4.13
2018-08-17T05:23:37.805Z,4.00
2018-08-17T05:26:06.697Z,4.30
2018-08-17T05:28:35.567Z,4.10
2018-08-17T05:31:04.479Z,4.30
2018-08-17T05:33:33.353Z,4.20
2018-08-17T05:36:02.308Z,4.90
2018-08-17T05:38:31.116Z,4.40
2018-08-17T05:40:59.952Z,4.30
2018-08-17T05:43:28.832Z,4.30
2018-08-17T05:45:57.667Z,4.50
2018-08-17T05:48:26.482Z,4.70
2018-08-17T05:50:55.353Z,3.87
2018-08-17T05:53:24.205Z,4.57
2018-08-17T05:55:53.086Z,4.13
2018-08-17T05:58:22.008Z,4.00
2018-08-17T06:00:50.998Z,3.83
2018-08-17T06:03:19.826Z,3.80
2018-08-17T06:05:48.702Z,4.13
2018-08-17T06:08:17.574Z,3.97
2018-08-17T06:10:46.423Z,3.90
2018-08-17T06:13:15.416Z,3.73
2018-08-17T06:15:44.256Z,3.83
2018-08-17T06:18:13.165Z,3.90
2018-08-17T06:20:42.043Z,3.80
2018-08-17T06:23:10.953Z,3.83
2018-08-17T06:25:39.905Z,4.10
2018-08-17T06:28:08.875Z,4.30
2018-08-17T06:30:37.712Z,4.03
2018-08-17T06:33:06.767Z,3.80
2018-08-17T06:35:35.684Z,3.90
2018-08-17T06:38:04.647Z,4.07
2018-08-17T06:40:33.473Z,4.23
2018-08-17T06:43:02.347Z,4.10
2018-08-17T06:45:31.263Z,4.07
2018-08-17T06:48:00.138Z,3.60
2018-08-17T06:50:29.037Z,4.07
2018-08-17T06:52:57.864Z,3.90
2018-08-17T06:55:26.714Z,3.70
2018-08-17T06:57:55.555Z,3.67
2018-08-17T07:00:24.464Z,3.77
2018-08-17T07:02:53.356Z,3.60
2018-08-17T07:05:22.204Z,3.57
2018-08-17T07:07:51.034Z,3.47
2018-08-17T07:10:19.919Z,4.00
2018-08-17T07:12:48.870Z,4.33
2018-08-17T07:15:17.681Z,4.10
2018-08-17T07:17:46.556Z,3.37
2018-08-17T07:20:15.440Z,3.80
2018-08-17T07:22:44.292Z,3.93
2018-08-17T07:25:13.089Z,3.40
2018-08-17T07:27:41.978Z,3.50
2018-08-17T07:30:11.070Z,3.27
2018-08-17T07:32:39.886Z,3.33
2018-08-17T07:35:10.686Z,3.10
2018-08-17T07:37:39.540Z,3.40
2018-08-17T07:40:09.098Z,3.23
2018-08-17T07:42:37.975Z,3.17
2018-08-17T07:45:07.232Z,3.40
2018-08-17T07:47:36.088Z,3.67
2018-08-17T07:50:05.019Z,3.37
2018-08-17T07:52:33.949Z,3.20
2018-08-17T07:55:02.990Z,3.90
2018-08-17T07:57:31.881Z,3.37
2018-08-17T08:00:00.767Z,3.40
2018-08-17T08:02:29.610Z,3.43
2018-08-17T08:04:58.519Z,3.47
2018-08-17T08:07:27.355Z,3.40
2018-08-17T08:09:56.192Z,3.70
2018-08-17T08:12:25.086Z,3.17
2018-08-17T08:14:53.892Z,3.57
2018-08-17T08:17:22.693Z,3.40
2018-08-17T08:20:02.415Z,3.33
2018-08-17T08:22:31.236Z,3.50
2018-08-17T08:25:00.068Z,3.10
2018-08-17T08:27:28.924Z,3.50
2018-08-17T08:29:57.723Z,3.87
2018-08-17T08:32:26.633Z,3.30
2018-08-17T08:34:55.474Z,2.73
2018-08-17T08:37:24.318Z,3.00
2018-08-17T08:39:53.165Z,3.00
2018-08-17T08:42:22.078Z,3.37
2018-08-17T08:44:50.902Z,3.30
2018-08-17T08:47:19.710Z,3.10
2018-08-17T08:49:48.564Z,3.23
2018-08-17T08:52:17.536Z,3.10
2018-08-17T08:54:46.389Z,3.20
2018-08-17T08:57:15.299Z,3.27
2018-08-17T08:59:44.179Z,3.43
2018-08-17T09:02:13.076Z,3.10
2018-08-17T09:04:42.091Z,3.20
2018-08-17T09:07:11.067Z,3.30
2018-08-17T09:09:39.970Z,2.90
2018-08-17T09:12:08.967Z,3.37
2018-08-17T09:14:37.907Z,2.87
2018-08-17T09:17:06.791Z,3.17
2018-08-17T09:19:35.659Z,3.00
2018-08-17T09:22:04.629Z,3.43
2018-08-17T09:24:33.486Z,3.47
2018-08-17T09:27:02.357Z,2.97
2018-08-17T09:29:31.204Z,3.23
2018-08-17T09:32:00.080Z,3.17
2018-08-17T09:34:28.986Z,3.07
2018-08-17T09:36:57.830Z,3.00
2018-08-17T09:39:26.988Z,2.90
2018-08-17T09:41:55.979Z,2.90
2018-08-17T09:44:24.879Z,3.37
2018-08-17T09:46:53.736Z,3.30
2018-08-17T09:49:22.608Z,2.83
2018-08-17T09:51:51.404Z,3.10
2018-08-17T09:54:20.238Z,3.00
2018-08-17T09:56:49.121Z,3.13
2018-08-17T09:59:17.972Z,3.03
2018-08-17T10:01:52.186Z,3.00
2018-08-17T10:04:26.101Z,3.47
2018-08-17T10:07:00.081Z,3.33
2018-08-17T10:09:34.069Z,2.93
2018-08-17T10:12:03.050Z,2.90
2018-08-17T10:14:31.868Z,2.83
2018-08-17T10:17:00.802Z,3.17
2018-08-17T10:19:29.687Z,3.50
2018-08-17T10:21:59.117Z,3.37
2018-08-17T10:24:27.808Z,3.20
2018-08-17T10:26:56.761Z,2.90
2018-08-17T10:29:25.622Z,2.80
2018-08-17T10:31:54.476Z,3.60
2018-08-17T10:34:23.383Z,3.58
2018-08-17T10:36:52.279Z,3.23
2018-08-17T10:39:21.141Z,4.10
2018-08-17T10:41:50.007Z,3.00
2018-08-17T10:44:18.832Z,3.87
2018-08-17T10:46:47.704Z,3.67
2018-08-17T10:49:16.731Z,3.30
2018-08-17T10:51:45.573Z,3.00
2018-08-17T10:54:14.471Z,3.30
2018-08-17T10:56:43.427Z,3.40
2018-08-17T10:59:12.339Z,3.72
2018-08-17T11:01:44.602Z,3.20
2018-08-17T11:04:13.489Z,3.80
2018-08-17T11:06:42.402Z,3.40
2018-08-17T11:09:11.920Z,3.60
2018-08-17T11:11:42.339Z,3.43
2018-08-17T11:14:11.170Z,3.10
2018-08-17T11:16:40.115Z,3.33
2018-08-17T11:19:09.063Z,3.13
2018-08-17T11:21:38.056Z,3.33
2018-08-17T11:24:06.953Z,3.67
2018-08-17T11:26:37.364Z,3.47
2018-08-17T11:29:06.305Z,3.83
2018-08-17T11:31:35.254Z,3.40
2018-08-17T11:34:04.193Z,3.47
2018-08-17T11:36:33.123Z,3.20
2018-08-17T11:39:02.029Z,3.42
2018-08-17T11:41:30.982Z,3.58
2018-08-17T11:44:03.028Z,3.55
2018-08-17T11:46:32.247Z,3.25
2018-08-17T11:49:01.423Z,3.27
2018-08-17T11:51:30.307Z,3.15
2018-08-17T11:53:59.240Z,3.45
2018-08-17T11:56:28.131Z,3.37
2018-08-17T11:58:56.997Z,2.98
2018-08-17T12:01:28.284Z,3.50
2018-08-17T12:03:57.293Z,3.15
2018-08-17T12:06:26.331Z,3.47
2018-08-17T12:08:55.213Z,3.52
2018-08-17T12:11:24.137Z,3.40
2018-08-17T12:13:52.973Z,3.65
2018-08-17T12:16:21.818Z,3.10
2018-08-17T12:18:50.726Z,3.22
2018-08-17T12:21:19.528Z,3.30
2018-08-17T12:23:48.372Z,3.02
2018-08-17T12:26:17.309Z,3.40
2018-08-17T12:28:46.152Z,2.87
2018-08-17T12:31:15.224Z,3.03
2018-08-17T12:33:44.121Z,3.40
2018-08-17T12:36:13.136Z,2.90
2018-08-17T12:38:41.993Z,3.13
2018-08-17T12:41:10.988Z,3.20
2018-08-17T12:43:40.497Z,3.10
2018-08-17T12:46:09.394Z,3.17
2018-08-17T12:48:38.275Z,4.00
2018-08-17T12:51:08.179Z,7.00
2018-08-17T12:53:37.007Z,7.03
2018-08-17T12:56:05.969Z,6.53
2018-08-17T12:58:34.815Z,5.27
2018-08-17T13:01:03.998Z,4.27
2018-08-17T13:03:32.944Z,3.67
2018-08-17T13:06:01.881Z,3.67
2018-08-17T13:08:30.768Z,3.63
2018-08-17T13:11:00.870Z,3.73
2018-08-17T13:13:29.775Z,3.50
2018-08-17T13:16:04.798Z,3.43
2018-08-17T13:18:35.606Z,4.07
2018-08-17T13:21:04.628Z,4.20
2018-08-17T13:23:33.552Z,3.37
2018-08-17T13:26:02.482Z,3.43
2018-08-17T13:28:31.442Z,3.43
2018-08-17T13:31:00.352Z,3.50
2018-08-17T13:33:29.210Z,3.83
2018-08-17T13:35:58.478Z,3.30
2018-08-17T13:38:27.459Z,3.43
2018-08-17T13:40:56.377Z,3.23
2018-08-17T13:43:25.289Z,3.50
2018-08-17T13:45:54.251Z,3.40
2018-08-17T13:48:23.137Z,3.33
2018-08-17T13:50:52.102Z,3.80
2018-08-17T13:53:21.045Z,3.47
2018-08-17T13:55:49.927Z,3.93
2018-08-17T13:58:18.856Z,3.37
2018-08-17T14:00:47.815Z,3.57
2018-08-17T14:03:16.703Z,3.30
2018-08-17T14:05:45.578Z,3.47
2018-08-17T14:08:14.538Z,3.47
2018-08-17T14:10:43.483Z,3.90
2018-08-17T14:13:12.413Z,3.67
2018-08-17T14:15:41.418Z,3.43
2018-08-17T14:18:10.564Z,3.57
2018-08-17T14:20:39.497Z,3.03
2018-08-17T14:23:08.476Z,3.23
2018-08-17T14:25:37.418Z,3.10
2018-08-17T14:28:06.370Z,3.30
2018-08-17T14:30:35.595Z,3.57
2018-08-17T14:33:04.577Z,7.07
2018-08-17T14:35:33.513Z,6.10
2018-08-17T14:38:02.490Z,3.50
2018-08-17T14:40:31.387Z,3.40
2018-08-17T14:43:00.234Z,3.37
2018-08-17T14:45:29.226Z,3.27
2018-08-17T14:47:58.202Z,3.27
2018-08-17T14:50:27.052Z,3.20
2018-08-17T14:52:55.996Z,3.43
2018-08-17T14:55:24.928Z,3.27
2018-08-17T14:57:53.876Z,3.30
2018-08-17T15:00:22.773Z,3.40
2018-08-17T15:02:51.664Z,3.07
2018-08-17T15:05:20.611Z,3.20
2018-08-17T15:07:49.574Z,3.00
2018-08-17T15:10:18.458Z,3.23
2018-08-17T15:12:47.357Z,3.33
2018-08-17T15:15:16.285Z,3.20
2018-08-17T15:17:45.169Z,3.80
2018-08-17T15:20:14.082Z,3.17
2018-08-17T15:22:43.306Z,3.43
2018-08-17T15:25:12.219Z,3.47
2018-08-17T15:27:41.164Z,3.47
2018-08-17T15:30:11.426Z,4.10
2018-08-17T15:32:41.227Z,3.60
2018-08-17T15:35:11.070Z,3.80
2018-08-17T15:37:41.371Z,3.10
2018-08-17T15:40:11.802Z,3.53
2018-08-17T15:42:41.207Z,3.47
2018-08-17T15:45:10.832Z,3.70
2018-08-17T15:47:39.768Z,3.30
2018-08-17T15:50:11.390Z,3.50
2018-08-17T15:52:40.370Z,3.47
2018-08-17T15:55:09.273Z,3.40
2018-08-17T15:57:38.447Z,4.47
2018-08-17T16:00:09.554Z,3.87
2018-08-17T16:02:38.460Z,4.17
2018-08-17T16:05:07.599Z,3.83
2018-08-17T16:07:36.561Z,3.60
2018-08-17T16:10:06.330Z,3.90
2018-08-17T16:12:35.259Z,3.73
2018-08-17T16:15:04.280Z,3.70
2018-08-17T16:17:33.202Z,3.00
2018-08-17T16:20:02.131Z,3.70
2018-08-17T16:22:31.088Z,3.17
2018-08-17T16:24:59.950Z,3.60
2018-08-17T16:27:28.812Z,3.67
2018-08-17T16:29:57.644Z,4.37
2018-08-17T16:32:26.540Z,4.00
2018-08-17T16:34:55.612Z,4.30
2018-08-17T16:37:24.498Z,4.20
2018-08-17T16:39:53.293Z,3.77
2018-08-17T16:42:27.362Z,4.23
2018-08-17T16:44:56.557Z,4.60
2018-08-17T16:47:25.860Z,4.20
2018-08-17T16:49:54.975Z,4.20
2018-08-17T16:52:25.523Z,3.80
2018-08-17T16:54:54.650Z,4.00
2018-08-17T16:57:23.571Z,4.20
2018-08-17T16:59:52.475Z,4.30
2018-08-17T17:02:21.330Z,3.77
2018-08-17T17:04:50.306Z,3.73
2018-08-17T17:07:19.326Z,3.60
2018-08-17T17:09:48.477Z,3.73
2018-08-17T17:12:21.096Z,3.70
2018-08-17T17:14:50.052Z,3.60
2018-08-17T17:17:18.913Z,3.60
2018-08-17T17:19:47.774Z,4.10
2018-08-17T17:22:16.745Z,4.10
2018-08-17T17:24:45.636Z,3.80
2018-08-17T17:27:15.580Z,3.60
2018-08-17T17:29:44.447Z,3.83
2018-08-17T17:32:13.371Z,3.73
2018-08-17T17:34:42.328Z,3.70
2018-08-17T17:37:11.137Z,3.67
2018-08-17T17:39:40.021Z,3.40
2018-08-17T17:42:09.016Z,3.13
2018-08-17T17:44:37.960Z,4.17
2018-08-17T17:47:06.812Z,3.67
2018-08-17T17:49:35.747Z,3.57
2018-08-17T17:52:04.859Z,4.00
2018-08-17T17:54:33.800Z,3.60
2018-08-17T17:57:07.907Z,3.80
2018-08-17T17:59:43.502Z,3.70
2018-08-17T18:02:12.722Z,3.30
2018-08-17T18:04:41.857Z,3.43
2018-08-17T18:07:10.864Z,3.20
2018-08-17T18:09:39.836Z,3.33
2018-08-17T18:12:08.837Z,3.77
2018-08-17T18:14:37.910Z,3.40
2018-08-17T18:17:06.873Z,3.43
2018-08-17T18:19:35.817Z,3.23
2018-08-17T18:22:04.807Z,3.20
2018-08-17T18:24:33.892Z,3.10
2018-08-17T18:27:02.868Z,3.23
2018-08-17T18:29:31.801Z,3.00
2018-08-17T18:32:00.725Z,3.17
2018-08-17T18:34:29.610Z,3.87
2018-08-17T18:36:58.575Z,3.73
2018-08-17T18:39:27.498Z,3.17
2018-08-17T18:41:56.443Z,3.60
2018-08-17T18:44:25.353Z,3.77
2018-08-17T18:46:58.464Z,3.17
2018-08-17T18:49:27.387Z,3.87
2018-08-17T18:51:56.250Z,3.80
2018-08-17T18:54:27.413Z,3.50
2018-08-17T18:56:56.392Z,4.13
2018-08-17T18:59:25.380Z,3.83
2018-08-17T19:01:54.491Z,3.50
2018-08-17T19:04:23.492Z,3.57
2018-08-17T19:06:52.379Z,3.20
2018-08-17T19:09:21.616Z,3.53
2018-08-17T19:11:50.589Z,3.83
2018-08-17T19:14:19.770Z,3.60
2018-08-17T19:16:48.719Z,3.60
2018-08-17T19:19:17.582Z,3.80
2018-08-17T19:21:46.422Z,3.27
2018-08-17T19:24:15.318Z,3.70
2018-08-17T19:26:44.204Z,3.23
2018-08-17T19:29:13.049Z,3.50
2018-08-17T19:31:48.066Z,2.83
2018-08-17T19:34:16.890Z,3.63
2018-08-17T19:36:45.745Z,3.17
2018-08-17T19:39:37.481Z,3.30
2018-08-17T19:42:06.414Z,3.30
2018-08-17T19:44:35.292Z,3.60
2018-08-17T19:47:04.248Z,3.50
2018-08-17T19:49:33.133Z,3.33
2018-08-17T19:52:02.073Z,3.57
2018-08-17T19:54:30.965Z,3.20
2018-08-17T19:56:59.933Z,3.33
2018-08-17T19:59:28.946Z,4.10
2018-08-17T20:01:58.116Z,4.17
2018-08-17T20:04:27.015Z,3.30
2018-08-17T20:06:55.863Z,3.30
2018-08-17T20:09:24.803Z,2.93
2018-08-17T20:11:53.746Z,2.97
2018-08-17T20:14:22.710Z,3.40
2018-08-17T20:16:52.313Z,3.23
2018-08-17T20:19:21.477Z,3.80
2018-08-17T20:21:50.381Z,3.67
2018-08-17T20:24:19.220Z,3.50
2018-08-17T20:26:48.509Z,3.57
2018-08-17T20:29:17.316Z,3.47
2018-08-17T20:31:46.115Z,3.63
2018-08-17T20:34:14.966Z,3.60
2018-08-17T20:36:43.857Z,3.70
2018-08-17T20:39:13.862Z,3.80
2018-08-17T20:41:42.745Z,3.20
2018-08-17T20:44:11.608Z,3.20
2018-08-17T20:46:40.451Z,3.80
2018-08-17T20:49:09.277Z,3.37
2018-08-17T20:51:45.277Z,3.50
2018-08-17T20:54:14.117Z,3.50
2018-08-17T20:56:42.918Z,3.63
2018-08-17T20:59:11.737Z,3.40
2018-08-17T21:01:40.532Z,3.67
2018-08-17T21:04:09.650Z,3.60
2018-08-17T21:06:38.528Z,3.67
2018-08-17T21:09:08.540Z,3.87
2018-08-17T21:11:37.450Z,3.80
2018-08-17T21:14:06.276Z,3.47
2018-08-17T21:16:35.101Z,3.73
2018-08-17T21:19:03.966Z,3.87
2018-08-17T21:21:32.841Z,3.80
2018-08-17T21:24:01.662Z,3.43
2018-08-17T21:26:30.690Z,3.60
2018-08-17T21:28:59.540Z,3.50
2018-08-17T21:31:28.393Z,3.63
2018-08-17T21:33:57.214Z,3.73
2018-08-17T21:36:26.083Z,3.77
2018-08-17T21:39:10.560Z,3.83
2018-08-17T21:41:41.189Z,3.43
2018-08-17T21:44:12.385Z,3.70
2018-08-17T21:46:50.023Z,3.20
2018-08-17T21:49:19.159Z,3.77
2018-08-17T21:51:47.967Z,3.97
2018-08-17T21:54:18.488Z,3.60
2018-08-17T21:56:48.336Z,3.57
2018-08-17T21:59:17.162Z,3.20
2018-08-17T22:01:46.029Z,3.87
2018-08-17T22:04:14.843Z,3.57
2018-08-17T22:06:43.657Z,3.37
2018-08-17T22:09:13.004Z,3.57
2018-08-17T22:11:43.232Z,3.53
2018-08-17T22:14:12.093Z,3.47
2018-08-17T22:16:40.990Z,3.90
2018-08-17T22:19:14.304Z,3.90
2018-08-17T22:21:43.139Z,3.97
2018-08-17T22:24:12.020Z,3.93
2018-08-17T22:26:40.843Z,4.27
2018-08-17T22:29:09.681Z,3.73
2018-08-17T22:31:38.992Z,3.77
2018-08-17T22:34:07.826Z,3.73
2018-08-17T22:36:36.732Z,3.80
2018-08-17T22:39:07.140Z,3.50
2018-08-17T22:41:36.010Z,3.30
2018-08-17T22:44:08.961Z,3.97
2018-08-17T22:46:37.758Z,3.73
2018-08-17T22:49:06.626Z,3.47
2018-08-17T22:51:35.466Z,3.60
2018-08-17T22:54:04.285Z,3.70
2018-08-17T22:56:33.108Z,3.70
2018-08-17T22:59:01.956Z,4.03
2018-08-17T23:01:30.792Z,4.10
2018-08-17T23:03:59.574Z,3.87
2018-08-17T23:06:28.501Z,3.83
2018-08-17T23:08:57.387Z,4.10
2018-08-17T23:11:36.054Z,3.40
2018-08-17T23:14:09.638Z,4.07
2018-08-17T23:16:38.550Z,4.10
2018-08-17T23:19:07.378Z,3.90
2018-08-17T23:21:36.134Z,4.20
2018-08-17T23:24:04.977Z,4.73
2018-08-17T23:26:33.791Z,3.90
2018-08-17T23:29:02.612Z,4.10
2018-08-17T23:31:31.486Z,4.10
2018-08-17T23:34:00.300Z,4.20
2018-08-17T23:36:29.202Z,4.40
2018-08-17T23:38:58.077Z,4.00
2018-08-17T23:41:26.962Z,4.40
2018-08-17T23:43:55.787Z,3.77
2018-08-17T23:46:24.593Z,3.97
2018-08-17T23:48:53.433Z,4.10
2018-08-17T23:51:22.215Z,4.17
2018-08-17T23:53:51.047Z,3.93
2018-08-17T23:56:19.859Z,3.97
2018-08-17T23:58:48.701Z,4.37
